RSL89Q LOWW-LFPO
Flight info
| Callsign | RSL89Q |
|---|---|
| Flight time | N/A |
| Altitude | 36000 |
| Route | SOVIL DCT SITNI DCT BAGSI DCT MATIG DCT SBG DCT TRAUN L856 RAVED Y112 HOC DCT MOROK DCT PENDU DCT JAVVU DCT DJL |
| Aircraft | B738/M-SDE2E3FGHIRWXY/LB1 |
Departure
| Time | 2026-05-04 03:53 |
|---|---|
| Airport | Vienna International Airport (LOWW) |
Arrival
| Time | N/A |
|---|---|
| Airport | Paris-Orly Airport (LFPO) |
| Time | Latitude | Longitude | Altitude | Speed | Heading |
|---|---|---|---|---|---|
| 2026-05-04 03:23 | 48.11900 | 16.56770 | 607 ft | 0 kts | 206° |
| 2026-05-04 03:45 | 48.11911 | 16.56777 | 607 ft | 4 kts | 206° |
| 2026-05-04 03:45 | 48.11933 | 16.56794 | 607 ft | 3 kts | 206° |
| 2026-05-04 03:45 | 48.11956 | 16.56803 | 607 ft | 4 kts | 160° |
| 2026-05-04 03:46 | 48.11973 | 16.56780 | 617 ft | 4 kts | 117° |
| 2026-05-04 03:46 | 48.11978 | 16.56766 | 607 ft | 1 kts | 116° |
| 2026-05-04 03:49 | 48.11976 | 16.56769 | 607 ft | 2 kts | 116° |
| 2026-05-04 03:49 | 48.11964 | 16.56806 | 607 ft | 6 kts | 116° |
| 2026-05-04 03:49 | 48.11945 | 16.56865 | 611 ft | 7 kts | 116° |
| 2026-05-04 03:49 | 48.11916 | 16.56952 | 613 ft | 11 kts | 116° |
| 2026-05-04 03:50 | 48.11882 | 16.57057 | 612 ft | 11 kts | 116° |
| 2026-05-04 03:50 | 48.11856 | 16.57140 | 607 ft | 11 kts | 113° |
| 2026-05-04 03:50 | 48.11841 | 16.57252 | 613 ft | 11 kts | 114° |
| 2026-05-04 03:50 | 48.11810 | 16.57353 | 611 ft | 11 kts | 110° |
| 2026-05-04 03:51 | 48.11819 | 16.57460 | 620 ft | 10 kts | 75° |
| 2026-05-04 03:51 | 48.11847 | 16.57556 | 612 ft | 10 kts | 46° |
| 2026-05-04 03:51 | 48.11911 | 16.57566 | 615 ft | 10 kts | 345° |
| 2026-05-04 03:51 | 48.11973 | 16.57582 | 618 ft | 10 kts | 53° |
| 2026-05-04 03:52 | 48.11981 | 16.57679 | 607 ft | 9 kts | 101° |
| 2026-05-04 03:52 | 48.11961 | 16.57771 | 622 ft | 9 kts | 119° |
| 2026-05-04 03:52 | 48.11916 | 16.57834 | 617 ft | 9 kts | 150° |
| 2026-05-04 03:52 | 48.11720 | 16.57926 | 616 ft | 66 kts | 164° |
| 2026-05-04 03:53 | 48.11034 | 16.58216 | 616 ft | 136 kts | 164° |
| 2026-05-04 03:53 | 48.09963 | 16.58664 | 834 ft | 177 kts | 162° |
| 2026-05-04 03:53 | 48.08701 | 16.59150 | 1415 ft | 195 kts | 173° |
| 2026-05-04 03:53 | 48.07339 | 16.59435 | 2143 ft | 203 kts | 168° |
| 2026-05-04 03:54 | 48.05946 | 16.59963 | 2623 ft | 222 kts | 180° |
| 2026-05-04 03:54 | 48.04480 | 16.59176 | 3148 ft | 237 kts | 219° |
| 2026-05-04 03:54 | 48.03447 | 16.57173 | 3804 ft | 252 kts | 235° |
| 2026-05-04 03:54 | 48.02503 | 16.55016 | 4901 ft | 236 kts | 233° |
| 2026-05-04 03:55 | 48.01611 | 16.53004 | 5968 ft | 235 kts | 235° |
| 2026-05-04 03:55 | 48.00668 | 16.50870 | 6396 ft | 255 kts | 235° |
| 2026-05-04 03:55 | 47.99668 | 16.48622 | 7077 ft | 262 kts | 235° |
| 2026-05-04 03:55 | 47.98654 | 16.46352 | 7920 ft | 264 kts | 236° |
| 2026-05-04 03:56 | 47.97943 | 16.43797 | 8630 ft | 272 kts | 259° |
| 2026-05-04 03:56 | 47.97855 | 16.40939 | 9395 ft | 278 kts | 269° |
| 2026-05-04 03:56 | 47.97967 | 16.38014 | 10074 ft | 287 kts | 272° |
| 2026-05-04 03:56 | 47.98119 | 16.34973 | 10438 ft | 306 kts | 272° |
| 2026-05-04 03:57 | 47.98278 | 16.31675 | 10597 ft | 330 kts | 272° |
| 2026-05-04 03:57 | 47.98437 | 16.28154 | 10816 ft | 350 kts | 272° |
| 2026-05-04 03:57 | 47.98592 | 16.24468 | 11324 ft | 359 kts | 272° |
| 2026-05-04 03:57 | 47.98742 | 16.20725 | 12022 ft | 363 kts | 271° |
| 2026-05-04 03:58 | 47.99028 | 16.13200 | 13458 ft | 369 kts | 271° |
| 2026-05-04 03:58 | 47.99232 | 16.09366 | 14109 ft | 373 kts | 274° |
| 2026-05-04 03:58 | 47.99522 | 16.05496 | 14735 ft | 377 kts | 275° |
| 2026-05-04 03:59 | 47.99839 | 16.01604 | 15366 ft | 380 kts | 275° |
| 2026-05-04 03:59 | 48.00160 | 15.97659 | 15995 ft | 383 kts | 275° |
| 2026-05-04 03:59 | 48.00478 | 15.93678 | 16587 ft | 387 kts | 275° |
| 2026-05-04 03:59 | 48.00791 | 15.89668 | 17200 ft | 390 kts | 275° |
| 2026-05-04 04:00 | 48.01099 | 15.85644 | 17913 ft | 390 kts | 274° |
| 2026-05-04 04:00 | 48.01403 | 15.81610 | 18488 ft | 393 kts | 274° |
| 2026-05-04 04:00 | 48.01707 | 15.77526 | 18993 ft | 397 kts | 275° |
| 2026-05-04 04:00 | 48.02012 | 15.73404 | 19519 ft | 400 kts | 275° |
| 2026-05-04 04:01 | 48.02317 | 15.69263 | 20032 ft | 402 kts | 275° |
| 2026-05-04 04:01 | 48.02622 | 15.65095 | 20550 ft | 405 kts | 275° |
| 2026-05-04 04:01 | 48.02926 | 15.60934 | 21033 ft | 408 kts | 275° |
| 2026-05-04 04:01 | 48.03237 | 15.56646 | 21531 ft | 411 kts | 275° |
| 2026-05-04 04:02 | 48.03544 | 15.52395 | 22005 ft | 414 kts | 275° |
| 2026-05-04 04:02 | 48.03853 | 15.48105 | 22490 ft | 416 kts | 275° |
| 2026-05-04 04:02 | 48.04162 | 15.43792 | 22986 ft | 419 kts | 275° |
| 2026-05-04 04:02 | 48.04470 | 15.39450 | 23444 ft | 422 kts | 275° |
| 2026-05-04 04:03 | 48.04723 | 15.35069 | 23820 ft | 425 kts | 272° |
| 2026-05-04 04:03 | 48.04827 | 15.30710 | 24273 ft | 424 kts | 271° |
| 2026-05-04 04:03 | 48.04873 | 15.26244 | 24700 ft | 425 kts | 270° |
| 2026-05-04 04:03 | 48.04906 | 15.21870 | 25001 ft | 429 kts | 270° |
| 2026-05-04 04:04 | 48.04947 | 15.17390 | 25323 ft | 432 kts | 271° |
| 2026-05-04 04:04 | 48.05000 | 15.12894 | 25707 ft | 432 kts | 271° |
| 2026-05-04 04:04 | 48.05039 | 15.09925 | 25991 ft | 433 kts | 271° |
| 2026-05-04 04:04 | 48.05102 | 15.05421 | 26340 ft | 434 kts | 271° |
| 2026-05-04 04:05 | 48.05167 | 15.00886 | 26604 ft | 439 kts | 271° |
| 2026-05-04 04:05 | 48.05232 | 14.96306 | 26893 ft | 441 kts | 271° |
| 2026-05-04 04:05 | 48.05295 | 14.91711 | 27238 ft | 442 kts | 271° |
| 2026-05-04 04:05 | 48.05355 | 14.87119 | 27588 ft | 444 kts | 271° |
| 2026-05-04 04:06 | 48.05413 | 14.82500 | 27895 ft | 445 kts | 271° |
| 2026-05-04 04:06 | 48.05460 | 14.77850 | 28185 ft | 447 kts | 271° |
| 2026-05-04 04:06 | 48.05501 | 14.73196 | 28481 ft | 449 kts | 271° |
| 2026-05-04 04:06 | 48.05538 | 14.68520 | 28767 ft | 451 kts | 271° |
| 2026-05-04 04:07 | 48.05574 | 14.63827 | 29081 ft | 452 kts | 271° |
| 2026-05-04 04:07 | 48.05610 | 14.59141 | 29510 ft | 450 kts | 270° |
| 2026-05-04 04:07 | 48.05644 | 14.54479 | 30059 ft | 445 kts | 270° |
| 2026-05-04 04:07 | 48.05676 | 14.49874 | 30458 ft | 443 kts | 270° |
| 2026-05-04 04:08 | 48.05706 | 14.45259 | 30760 ft | 443 kts | 270° |
| 2026-05-04 04:08 | 48.05735 | 14.40642 | 31050 ft | 443 kts | 270° |
| 2026-05-04 04:08 | 48.05763 | 14.36103 | 31378 ft | 442 kts | 270° |
| 2026-05-04 04:08 | 48.05788 | 14.31521 | 31740 ft | 440 kts | 270° |
| 2026-05-04 04:09 | 48.05810 | 14.26957 | 32086 ft | 438 kts | 270° |
| 2026-05-04 04:09 | 48.05829 | 14.22394 | 32393 ft | 438 kts | 270° |
| 2026-05-04 04:09 | 48.05846 | 14.17847 | 32713 ft | 437 kts | 270° |
| 2026-05-04 04:09 | 48.05860 | 14.13318 | 33104 ft | 434 kts | 270° |
| 2026-05-04 04:10 | 48.05874 | 14.08820 | 33470 ft | 432 kts | 269° |
| 2026-05-04 04:10 | 48.05885 | 14.04326 | 33738 ft | 432 kts | 269° |
| 2026-05-04 04:10 | 48.05895 | 13.99840 | 33972 ft | 432 kts | 269° |
| 2026-05-04 04:10 | 48.05903 | 13.95338 | 34236 ft | 432 kts | 269° |
| 2026-05-04 04:11 | 48.05910 | 13.90854 | 34488 ft | 431 kts | 269° |
| 2026-05-04 04:11 | 48.05915 | 13.86377 | 34710 ft | 431 kts | 269° |
| 2026-05-04 04:11 | 48.05918 | 13.81909 | 34914 ft | 431 kts | 269° |
| 2026-05-04 04:11 | 48.05920 | 13.77432 | 35137 ft | 430 kts | 269° |
| 2026-05-04 04:12 | 48.05919 | 13.72961 | 35371 ft | 430 kts | 269° |
| 2026-05-04 04:12 | 48.05917 | 13.68494 | 35586 ft | 430 kts | 269° |
| 2026-05-04 04:12 | 48.05915 | 13.64025 | 35782 ft | 430 kts | 269° |
| 2026-05-04 04:12 | 48.05910 | 13.59559 | 35977 ft | 430 kts | 269° |
| 2026-05-04 04:13 | 48.05901 | 13.55085 | 36185 ft | 429 kts | 269° |
| 2026-05-04 04:13 | 48.05725 | 13.50695 | 36373 ft | 429 kts | 263° |
| 2026-05-04 04:13 | 48.05365 | 13.46272 | 36564 ft | 429 kts | 262° |
| 2026-05-04 04:13 | 48.04958 | 13.41870 | 36743 ft | 429 kts | 262° |
| 2026-05-04 04:14 | 48.04544 | 13.37460 | 36930 ft | 428 kts | 262° |
| 2026-05-04 04:14 | 48.04139 | 13.33043 | 37134 ft | 428 kts | 262° |
| 2026-05-04 04:14 | 48.03746 | 13.28642 | 37317 ft | 428 kts | 262° |
| 2026-05-04 04:14 | 48.03360 | 13.24227 | 37522 ft | 427 kts | 262° |
| 2026-05-04 04:15 | 48.02980 | 13.19832 | 37727 ft | 426 kts | 262° |
| 2026-05-04 04:15 | 48.02599 | 13.15440 | 37874 ft | 427 kts | 262° |
| 2026-05-04 04:15 | 48.02217 | 13.11039 | 38008 ft | 427 kts | 262° |
| 2026-05-04 04:15 | 48.01832 | 13.06630 | 38053 ft | 429 kts | 262° |
| 2026-05-04 04:16 | 48.01054 | 12.97788 | 38058 ft | 428 kts | 262° |
| 2026-05-04 04:16 | 48.00273 | 12.88999 | 38060 ft | 426 kts | 262° |
| 2026-05-04 04:17 | 47.99485 | 12.80320 | 38078 ft | 424 kts | 261° |
| 2026-05-04 04:17 | 47.98686 | 12.71626 | 38058 ft | 422 kts | 261° |
| 2026-05-04 04:18 | 47.97888 | 12.62969 | 38062 ft | 420 kts | 261° |
| 2026-05-04 04:18 | 47.97087 | 12.54337 | 38064 ft | 419 kts | 261° |
| 2026-05-04 04:19 | 47.96295 | 12.45724 | 38066 ft | 419 kts | 261° |
| 2026-05-04 04:19 | 47.95496 | 12.37109 | 38069 ft | 419 kts | 261° |
| 2026-05-04 04:20 | 47.94690 | 12.28476 | 38073 ft | 421 kts | 261° |
| 2026-05-04 04:20 | 47.93873 | 12.19819 | 38067 ft | 422 kts | 261° |
| 2026-05-04 04:21 | 47.93028 | 12.11188 | 38071 ft | 424 kts | 261° |
| 2026-05-04 04:21 | 47.92160 | 12.02487 | 38070 ft | 425 kts | 261° |
| 2026-05-04 04:22 | 47.91287 | 11.93762 | 38070 ft | 426 kts | 261° |
| 2026-05-04 04:22 | 47.90408 | 11.85020 | 38071 ft | 427 kts | 260° |
| 2026-05-04 04:23 | 47.89526 | 11.76260 | 38064 ft | 427 kts | 261° |
| 2026-05-04 04:23 | 47.88665 | 11.67496 | 38076 ft | 427 kts | 261° |
| 2026-05-04 04:24 | 47.87802 | 11.58748 | 38079 ft | 427 kts | 260° |
| 2026-05-04 04:24 | 47.86929 | 11.49993 | 38078 ft | 426 kts | 260° |
| 2026-05-04 04:25 | 47.86243 | 11.43155 | 38077 ft | 426 kts | 260° |